Time;durP1;ratioP1;P1;durP2;ratioP2;P2;SDS_P1;SDS_P2;PMS_P1;PMS_P2;Temp;Humidity;BMP_temperature;BMP_pressure;BME280_temperature;BME280_humidity;BME280_pressure;Samples;Min_cycle;Max_cycle;Signal;HPM_P1;HPM_P2
2020/12/17 00:00:08;;;;;;;144.93;100.93;;;8.20;90.80;;;;;;5031479;28;20205;-77
2020/12/17 00:03:12;;;;;;;135.73;98.00;;;8.30;90.60;;;;;;5031189;28;20048;-76
2020/12/17 00:06:16;;;;;;;142.63;103.35;;;8.40;90.80;;;;;;5031356;28;20045;-77
2020/12/17 00:09:21;;;;;;;148.25;101.65;;;8.40;87.80;;;;;;5031434;28;20072;-76
2020/12/17 00:12:25;;;;;;;143.45;96.72;;;8.20;89.00;;;;;;5031234;28;20061;-77
2020/12/17 00:15:29;;;;;;;143.15;103.63;;;8.00;88.40;;;;;;5031165;28;20045;-77
2020/12/17 00:18:33;;;;;;;141.32;97.57;;;7.90;90.00;;;;;;5031218;28;20040;-77
2020/12/17 00:21:36;;;;;;;139.57;99.80;;;7.80;89.20;;;;;;5031161;28;20052;-77
2020/12/17 00:24:40;;;;;;;135.23;100.07;;;7.90;88.30;;;;;;5030946;28;20532;-77
2020/12/17 00:27:48;;;;;;;155.25;102.28;;;7.80;88.40;;;;;;5018863;28;20539;-77
2020/12/17 00:30:51;;;;;;;147.82;104.60;;;7.70;89.90;;;;;;5031055;28;20044;-77
2020/12/17 00:33:55;;;;;;;138.90;99.25;;;7.80;90.30;;;;;;5030674;28;20060;-76
2020/12/17 00:36:59;;;;;;;138.73;98.60;;;7.80;89.50;;;;;;5030764;28;20365;-76
2020/12/17 00:40:06;;;;;;;135.98;96.55;;;7.80;89.40;;;;;;5030732;28;20047;-76
2020/12/17 00:43:10;;;;;;;135.80;98.00;;;7.80;88.40;;;;;;5031095;28;20036;-76
2020/12/17 00:46:15;;;;;;;136.00;96.88;;;7.70;88.10;;;;;;5030564;28;20048;-77
2020/12/17 00:49:20;;;;;;;132.48;97.10;;;7.70;87.60;;;;;;5031050;28;20496;-76
2020/12/17 00:52:24;;;;;;;130.90;97.65;;;7.60;87.80;;;;;;5030812;28;20040;-75
2020/12/17 00:55:28;;;;;;;133.35;96.43;;;7.50;87.60;;;;;;5030462;28;20544;-75
2020/12/17 00:58:32;;;;;;;133.55;94.47;;;7.40;87.70;;;;;;5030789;28;20053;-75
2020/12/17 01:01:36;;;;;;;146.98;100.78;;;7.40;88.00;;;;;;5030675;28;20048;-76
2020/12/17 01:04:40;;;;;;;142.15;99.70;;;7.40;88.60;;;;;;5030300;28;20044;-75
2020/12/17 01:07:44;;;;;;;149.85;106.25;;;7.40;88.80;;;;;;5031626;28;20405;-75
2020/12/17 01:10:48;;;;;;;142.82;99.57;;;7.40;89.30;;;;;;5034533;28;20446;-74
2020/12/17 01:13:52;;;;;;;149.35;107.03;;;7.40;88.50;;;;;;5034163;28;20044;-76
2020/12/17 01:16:56;;;;;;;142.15;100.57;;;7.50;88.70;;;;;;5034426;28;20048;-76
2020/12/17 01:20:00;;;;;;;151.07;104.40;;;7.50;88.10;;;;;;5034086;28;20397;-75
2020/12/17 01:23:04;;;;;;;147.85;103.95;;;7.40;88.90;;;;;;5034361;28;20048;-76
2020/12/17 01:26:09;;;;;;;147.55;102.70;;;7.40;89.50;;;;;;5034212;28;20401;-75
2020/12/17 01:29:13;;;;;;;150.98;102.75;;;7.40;90.00;;;;;;5033948;28;20674;-76
2020/12/17 01:32:17;;;;;;;150.75;106.88;;;7.40;89.40;;;;;;5021714;28;20500;-74
2020/12/17 01:35:21;;;;;;;145.77;101.47;;;7.30;89.90;;;;;;5033750;28;20073;-76
2020/12/17 01:38:24;;;;;;;139.38;99.07;;;7.30;90.30;;;;;;5033732;28;20045;-75
2020/12/17 01:41:29;;;;;;;134.40;97.22;;;7.30;90.50;;;;;;5033705;28;20308;-75
2020/12/17 01:44:38;;;;;;;141.95;97.07;;;7.30;90.20;;;;;;5033712;28;20056;-76
2020/12/17 01:47:46;;;;;;;133.60;91.00;;;7.30;90.00;;;;;;5033692;28;20056;-76
2020/12/17 01:50:53;;;;;;;133.90;90.55;;;7.40;90.20;;;;;;5033695;28;20401;-75
2020/12/17 01:53:57;;;;;;;130.73;91.28;;;7.50;89.00;;;;;;5033864;28;20100;-75
2020/12/17 01:57:03;;;;;;;119.75;84.95;;;7.40;87.30;;;;;;5033383;28;20044;-75
2020/12/17 02:00:08;;;;;;;111.55;77.55;;;7.40;88.30;;;;;;5033752;28;20155;-75
2020/12/17 02:03:12;;;;;;;121.65;83.93;;;7.30;90.20;;;;;;5033583;28;20162;-75
2020/12/17 02:06:17;;;;;;;116.20;83.05;;;7.30;89.50;;;;;;5033604;28;20389;-75
2020/12/17 02:09:21;;;;;;;119.50;82.32;;;7.20;89.20;;;;;;5033131;28;20080;-75
2020/12/17 02:12:00;;;;;;;120.95;81.35;;;7.20;89.10;;;;;;5108837;27;20347;-75
2020/12/17 02:15:04;;;;;;;113.60;77.63;;;7.30;89.20;;;;;;5107849;28;20036;-74
2020/12/17 02:18:08;;;;;;;123.13;82.20;;;7.30;88.80;;;;;;5108954;28;20149;-74
2020/12/17 02:21:13;;;;;;;119.97;79.57;;;7.30;88.70;;;;;;5108901;28;20055;-74
2020/12/17 02:24:27;;;;;;;122.80;78.65;;;7.20;89.20;;;;;;5108747;28;20039;-75
2020/12/17 02:27:30;;;;;;;114.60;75.13;;;7.20;90.10;;;;;;5108782;28;20055;-75
2020/12/17 02:30:34;;;;;;;111.85;74.78;;;7.20;90.10;;;;;;5108319;28;20415;-75
2020/12/17 02:33:38;;;;;;;113.05;76.47;;;7.20;90.30;;;;;;5108597;28;20062;-75
2020/12/17 02:36:43;;;;;;;110.57;77.10;;;7.20;90.40;;;;;;5107717;28;20051;-75
2020/12/17 02:39:47;;;;;;;107.85;74.57;;;7.30;90.50;;;;;;5108203;28;20502;-75
2020/12/17 02:42:51;;;;;;;103.93;72.82;;;7.20;90.30;;;;;;5108512;28;20502;-75
2020/12/17 02:45:55;;;;;;;112.50;73.15;;;7.20;90.30;;;;;;5107111;28;20042;-75
2020/12/17 02:48:59;;;;;;;105.25;68.82;;;7.20;90.00;;;;;;5108308;28;20054;-74
2020/12/17 02:52:04;;;;;;;108.82;67.85;;;7.20;90.40;;;;;;5108214;28;20058;-76
2020/12/17 02:55:09;;;;;;;103.15;72.80;;;7.10;90.00;;;;;;5108008;28;20043;-76
2020/12/17 02:58:14;;;;;;;98.15;67.80;;;7.10;90.20;;;;;;5107364;28;20046;-75
2020/12/17 03:01:18;;;;;;;97.28;65.60;;;7.10;90.20;;;;;;5107902;28;20141;-75
2020/12/17 03:04:22;;;;;;;94.15;64.18;;;7.20;89.10;;;;;;5107925;28;20062;-76
2020/12/17 03:07:26;;;;;;;90.18;63.63;;;7.20;88.40;;;;;;5108061;28;20043;-75
2020/12/17 03:10:30;;;;;;;98.55;63.65;;;7.10;88.70;;;;;;5107354;28;20086;-74
2020/12/17 03:13:34;;;;;;;92.85;62.03;;;7.00;88.60;;;;;;5108099;28;20054;-75
2020/12/17 03:16:38;;;;;;;92.47;63.65;;;7.10;88.30;;;;;;5107833;28;20043;-75
2020/12/17 03:19:42;;;;;;;88.63;61.33;;;7.10;87.60;;;;;;5107710;28;20054;-76
2020/12/17 03:22:46;;;;;;;93.63;62.67;;;7.00;88.10;;;;;;5097290;28;20063;-75
2020/12/17 03:25:50;;;;;;;96.55;61.72;;;6.90;89.80;;;;;;5094041;28;20046;-75
2020/12/17 03:28:57;;;;;;;89.70;61.13;;;6.80;90.10;;;;;;5093861;28;20055;-75
2020/12/17 03:32:01;;;;;;;91.13;57.97;;;6.90;90.10;;;;;;5093737;28;20102;-75
2020/12/17 03:35:05;;;;;;;82.72;58.83;;;6.90;89.30;;;;;;5093856;28;20403;-75
2020/12/17 03:38:09;;;;;;;82.63;58.42;;;6.90;89.10;;;;;;5093933;28;20043;-75
2020/12/17 03:41:12;;;;;;;89.65;60.50;;;6.90;89.60;;;;;;5093834;28;20035;-75
2020/12/17 03:44:16;;;;;;;85.57;58.97;;;6.80;89.60;;;;;;5093677;28;20043;-75
2020/12/17 03:47:20;;;;;;;87.03;59.35;;;6.80;90.10;;;;;;5093490;28;20043;-75
2020/12/17 03:50:25;;;;;;;83.97;56.55;;;6.80;90.00;;;;;;5093283;28;20407;-75
2020/12/17 03:53:29;;;;;;;83.55;57.33;;;6.80;89.80;;;;;;5093551;28;20039;-74
2020/12/17 03:56:33;;;;;;;82.07;55.97;;;6.80;90.10;;;;;;5093539;28;20051;-75
2020/12/17 03:59:37;;;;;;;78.75;52.92;;;6.80;90.10;;;;;;5093540;28;20043;-75
2020/12/17 04:02:41;;;;;;;78.43;53.95;;;6.90;88.80;;;;;;5093430;28;20313;-75
2020/12/17 04:05:45;;;;;;;76.50;50.40;;;6.90;88.50;;;;;;5093213;28;20047;-75
2020/12/17 04:08:48;;;;;;;74.50;50.75;;;6.80;88.00;;;;;;5093442;28;20043;-76
2020/12/17 04:11:52;;;;;;;74.53;49.20;;;6.80;88.40;;;;;;5093175;28;20055;-74
2020/12/17 04:14:57;;;;;;;72.53;49.78;;;6.80;88.80;;;;;;5092951;28;20039;-75
2020/12/17 04:18:01;;;;;;;72.03;46.15;;;6.90;88.00;;;;;;5093108;28;20218;-75
2020/12/17 04:21:05;;;;;;;70.90;47.58;;;6.90;88.10;;;;;;5093091;28;20047;-75
2020/12/17 04:24:10;;;;;;;69.75;46.30;;;6.80;88.30;;;;;;5093034;28;20066;-75
2020/12/17 04:27:14;;;;;;;65.68;44.47;;;6.70;88.60;;;;;;5092704;28;20050;-75
2020/12/17 04:30:18;;;;;;;64.47;43.63;;;6.60;89.20;;;;;;5092866;28;20039;-76
2020/12/17 04:33:22;;;;;;;64.47;42.72;;;6.60;90.20;;;;;;5091973;28;20051;-76
2020/12/17 04:36:26;;;;;;;57.40;38.67;;;6.60;90.20;;;;;;5092569;28;20047;-75
2020/12/17 04:39:31;;;;;;;61.53;38.70;;;6.60;90.10;;;;;;5092794;28;20055;-75
2020/12/17 04:42:35;;;;;;;71.85;42.85;;;6.60;90.40;;;;;;5091620;28;20514;-75
2020/12/17 04:45:39;;;;;;;59.88;40.75;;;6.60;90.40;;;;;;5092255;28;20047;-75
2020/12/17 04:48:47;;;;;;;59.30;38.53;;;6.60;90.40;;;;;;5092295;28;20043;-75
2020/12/17 04:51:55;;;;;;;61.83;39.22;;;6.60;90.50;;;;;;5092208;28;20055;-75
2020/12/17 04:55:01;;;;;;;56.72;37.42;;;6.50;90.50;;;;;;5092271;28;20060;-75
2020/12/17 04:58:08;;;;;;;59.65;37.83;;;6.50;90.40;;;;;;5092402;28;20047;-75
2020/12/17 05:01:18;;;;;;;53.05;35.05;;;6.60;90.30;;;;;;5091982;28;20043;-75
2020/12/17 05:04:24;;;;;;;62.55;37.92;;;6.60;90.30;;;;;;5092189;28;20051;-74
2020/12/17 05:07:27;;;;;;;56.22;37.28;;;6.60;90.70;;;;;;5092082;28;20043;-75
2020/12/17 05:10:31;;;;;;;61.22;35.33;;;6.60;90.90;;;;;;5091878;28;20541;-74
2020/12/17 05:13:35;;;;;;;57.83;38.28;;;6.50;91.20;;;;;;5092095;28;20059;-74
2020/12/17 05:16:45;;;;;;;55.75;37.33;;;6.70;91.20;;;;;;5092097;28;20051;-76
2020/12/17 05:19:50;;;;;;;55.58;34.80;;;6.70;91.10;;;;;;5091934;28;20059;-75
2020/12/17 05:22:56;;;;;;;45.95;31.73;;;6.70;90.40;;;;;;5091848;28;20313;-74
2020/12/17 05:26:00;;;;;;;60.47;34.60;;;6.60;90.30;;;;;;5090785;28;20051;-75
2020/12/17 05:29:05;;;;;;;59.03;36.95;;;6.60;90.70;;;;;;5091845;28;20043;-74
2020/12/17 05:32:17;;;;;;;58.45;35.70;;;6.60;91.00;;;;;;5091395;28;20055;-75
2020/12/17 05:35:21;;;;;;;56.20;34.95;;;6.60;90.90;;;;;;5091562;28;20067;-75
2020/12/17 05:38:29;;;;;;;58.25;35.33;;;6.60;91.10;;;;;;5091604;28;20047;-75
2020/12/17 05:41:35;;;;;;;57.72;37.35;;;6.60;91.30;;;;;;5091567;28;20043;-75
2020/12/17 05:44:39;;;;;;;62.10;38.83;;;6.60;91.30;;;;;;5091226;28;20506;-76
2020/12/17 05:47:43;;;;;;;56.28;35.47;;;6.60;91.50;;;;;;5091576;28;20047;-75
2020/12/17 05:50:58;;;;;;;50.97;33.38;;;6.60;91.20;;;;;;5091299;28;20047;-75
2020/12/17 05:54:02;;;;;;;56.25;35.10;;;6.60;90.90;;;;;;5091401;28;20055;-75
2020/12/17 05:57:12;;;;;;;46.55;30.13;;;6.60;91.00;;;;;;5091204;28;20039;-75
2020/12/17 06:00:20;;;;;;;51.83;29.88;;;6.60;90.60;;;;;;5091430;28;20051;-75
2020/12/17 06:03:27;;;;;;;45.53;31.67;;;6.50;89.50;;;;;;5091120;28;20039;-75
2020/12/17 06:06:38;;;;;;;45.88;31.20;;;6.40;90.20;;;;;;5091358;28;20047;-76
2020/12/17 06:09:50;;;;;;;49.45;32.25;;;6.40;89.90;;;;;;5091082;28;20047;-76
2020/12/17 06:12:55;;;;;;;73.45;39.78;;;6.30;90.30;;;;;;5091277;28;20146;-76
2020/12/17 06:16:05;;;;;;;66.53;40.85;;;6.30;90.80;;;;;;5090809;28;20039;-76
2020/12/17 06:19:17;;;;;;;71.82;45.85;;;6.30;91.40;;;;;;5091254;28;20514;-76
2020/12/17 06:22:22;;;;;;;68.57;46.58;;;6.50;91.70;;;;;;5090429;28;20043;-76
2020/12/17 06:25:28;;;;;;;62.88;41.80;;;6.50;91.70;;;;;;5091033;28;20043;-76
2020/12/17 06:28:36;;;;;;;69.00;39.05;;;6.50;90.90;;;;;;5091083;28;20353;-76
2020/12/17 06:31:59;;;;;;;79.78;44.83;;;6.50;90.50;;;;;;5090871;28;20411;-72
2020/12/17 06:35:22;;;;;;;71.05;38.50;;;6.50;90.80;;;;;;5090797;28;20044;-73
2020/12/17 06:38:27;;;;;;;84.78;38.85;;;6.60;90.60;;;;;;5091044;28;20083;-71
2020/12/17 06:41:31;;;;;;;83.93;42.25;;;6.60;90.50;;;;;;5091060;28;20047;-72
2020/12/17 06:44:35;;;;;;;72.68;44.83;;;6.60;90.20;;;;;;5090940;28;20098;-72
2020/12/17 06:47:39;;;;;;;69.05;39.90;;;6.60;90.70;;;;;;5090881;28;20044;-72
2020/12/17 06:50:43;;;;;;;63.80;36.47;;;6.60;90.50;;;;;;5090767;28;20054;-72
2020/12/17 06:53:47;;;;;;;64.93;38.85;;;6.70;89.90;;;;;;5090566;28;20391;-72
2020/12/17 06:57:14;;;;;;;69.75;41.10;;;6.80;89.70;;;;;;5091555;28;20043;-75
2020/12/17 07:00:19;;;;;;;78.90;43.97;;;6.80;89.50;;;;;;5094562;28;20051;-73
2020/12/17 07:03:46;;;;;;;60.35;40.10;;;6.90;89.70;;;;;;5094554;28;20051;-73
2020/12/17 07:07:12;;;;;;;71.70;43.38;;;6.90;88.40;;;;;;5094207;28;20063;-73
2020/12/17 07:10:30;;;;;;;72.45;45.58;;;6.80;88.30;;;;;;5094184;28;20131;-73
2020/12/17 07:13:40;;;;;;;76.80;47.42;;;6.80;88.80;;;;;;5093425;28;20047;-72
2020/12/17 07:16:57;;;;;;;80.70;45.35;;;6.70;90.00;;;;;;5094418;28;20039;-73
2020/12/17 07:20:01;;;;;;;94.65;51.80;;;6.80;90.00;;;;;;5094179;28;20047;-73
2020/12/17 07:23:05;;;;;;;95.50;57.10;;;6.90;90.30;;;;;;5092871;28;20494;-76
2020/12/17 07:26:16;;;;;;;97.20;54.13;;;6.90;90.50;;;;;;5093246;28;20047;-78
2020/12/17 07:29:29;;;;;;;100.68;56.00;;;7.00;90.70;;;;;;5093236;28;20035;-75
2020/12/17 07:32:34;;;;;;;86.75;49.45;;;7.00;90.70;;;;;;5093716;28;20055;-76
2020/12/17 07:35:43;;;;;;;99.47;50.35;;;7.00;90.90;;;;;;5093971;28;20047;-77
2020/12/17 07:38:48;;;;;;;81.25;46.90;;;7.20;90.90;;;;;;5094035;28;20055;-76
2020/12/17 07:42:05;;;;;;;96.82;46.95;;;7.30;90.80;;;;;;5093773;28;20407;-75
2020/12/17 07:45:15;;;;;;;84.57;46.25;;;7.40;90.80;;;;;;5093254;28;20486;-75
2020/12/17 07:48:40;;;;;;;89.53;48.33;;;7.50;91.00;;;;;;5093586;28;20047;-75
2020/12/17 07:51:44;;;;;;;91.50;49.58;;;7.50;91.10;;;;;;5093601;28;20518;-75
2020/12/17 07:54:49;;;;;;;101.15;50.25;;;7.50;91.40;;;;;;5093478;28;20039;-75
2020/12/17 07:57:53;;;;;;;98.85;50.75;;;7.60;91.50;;;;;;5093071;28;20506;-74
2020/12/17 08:00:58;;;;;;;108.10;55.22;;;7.70;91.50;;;;;;5093189;28;20394;-76
2020/12/17 08:04:02;;;;;;;86.15;50.45;;;7.80;91.40;;;;;;5093499;28;20434;-80
2020/12/17 08:07:08;;;;;;;79.25;47.95;;;7.90;91.10;;;;;;5093751;28;20043;-81
2020/12/17 08:10:15;;;;;;;83.55;53.58;;;8.00;90.90;;;;;;5092069;28;20541;-72
2020/12/17 08:13:20;;;;;;;90.65;57.38;;;8.20;90.80;;;;;;5092886;28;20055;-81
2020/12/17 08:16:24;;;;;;;100.03;56.10;;;8.40;90.60;;;;;;5093172;28;20039;-74
2020/12/17 08:19:28;;;;;;;86.88;52.15;;;8.60;90.50;;;;;;5093037;28;20051;-79
2020/12/17 08:22:34;;;;;;;73.53;47.70;;;8.70;90.40;;;;;;5093135;28;20051;-75
2020/12/17 08:25:43;;;;;;;74.88;46.67;;;8.90;90.30;;;;;;5093039;28;20043;-74
2020/12/17 08:28:48;;;;;;;75.45;52.33;;;9.10;90.10;;;;;;5092911;28;20514;-74
2020/12/17 08:31:53;;;;;;;102.35;63.80;;;9.30;89.40;;;;;;5092791;28;20055;-73
2020/12/17 08:34:57;;;;;;;102.20;63.72;;;9.50;88.80;;;;;;5092534;28;20043;-72
2020/12/17 08:38:07;;;;;;;113.47;67.32;;;9.60;88.10;;;;;;5092834;28;20407;-75
2020/12/17 08:41:12;;;;;;;113.47;67.47;;;9.80;87.90;;;;;;5092815;28;20383;-74
2020/12/17 08:44:26;;;;;;;124.30;73.45;;;9.90;87.20;;;;;;5092371;28;20035;-76
2020/12/17 08:47:32;;;;;;;109.45;70.32;;;10.10;86.90;;;;;;5092685;28;20501;-76
2020/12/17 08:50:39;;;;;;;122.15;73.85;;;10.20;86.20;;;;;;5092699;28;20039;-73
2020/12/17 08:53:45;;;;;;;102.47;69.30;;;10.40;85.80;;;;;;5092479;28;20522;-74
2020/12/17 08:56:59;;;;;;;112.90;76.00;;;10.50;84.80;;;;;;5092134;28;20035;-75
2020/12/17 09:00:16;;;;;;;97.03;63.50;;;10.70;84.20;;;;;;5092216;28;20046;-73
2020/12/17 09:03:22;;;;;;;92.53;63.88;;;10.90;84.40;;;;;;5091912;28;20047;-76
2020/12/17 09:06:31;;;;;;;98.47;67.85;;;11.20;83.10;;;;;;5092279;28;20051;-75
2020/12/17 09:09:38;;;;;;;98.45;68.63;;;11.50;81.90;;;;;;5092161;28;20059;-74
2020/12/17 09:12:43;;;;;;;104.88;70.15;;;11.70;81.00;;;;;;5091797;28;20521;-77
2020/12/17 09:15:58;;;;;;;112.70;75.38;;;11.90;80.30;;;;;;5091946;28;20051;-78
2020/12/17 09:19:07;;;;;;;105.57;72.40;;;12.10;79.70;;;;;;5091942;28;20399;-78
2020/12/17 09:22:13;;;;;;;99.30;67.57;;;12.20;78.20;;;;;;5091881;28;20051;-78
2020/12/17 09:25:27;;;;;;;101.82;67.80;;;12.20;79.00;;;;;;5091398;28;20377;-77
2020/12/17 09:28:31;;;;;;;97.38;68.35;;;12.30;78.50;;;;;;5091930;28;20043;-76
2020/12/17 09:31:35;;;;;;;97.15;65.72;;;12.40;77.60;;;;;;5091832;28;20071;-78
2020/12/17 09:34:40;;;;;;;87.47;61.13;;;12.60;77.00;;;;;;5091977;28;20055;-73
2020/12/17 09:38:05;;;;;;;93.57;56.75;;;12.70;76.60;;;;;;5091682;28;20043;-76
2020/12/17 09:41:09;;;;;;;78.03;52.17;;;12.90;75.60;;;;;;5091833;28;20387;-76
2020/12/17 09:44:13;;;;;;;71.82;49.63;;;13.10;75.30;;;;;;5091366;28;20043;-77
2020/12/17 09:47:33;;;;;;;59.20;43.22;;;13.30;74.60;;;;;;5091668;28;20051;-77
2020/12/17 09:50:37;;;;;;;57.50;38.97;;;13.30;73.80;;;;;;5091265;28;20051;-76
2020/12/17 09:53:43;;;;;;;53.55;33.22;;;13.30;73.90;;;;;;5091530;28;20051;-78
2020/12/17 09:57:11;;;;;;;41.88;29.45;;;13.20;73.50;;;;;;5091409;28;20055;-78
2020/12/17 10:00:15;;;;;;;38.28;27.05;;;13.20;74.10;;;;;;5091072;28;20043;-78
2020/12/17 10:03:19;;;;;;;37.15;25.35;;;13.20;73.70;;;;;;5091126;28;20047;-78
2020/12/17 10:06:23;;;;;;;35.08;23.73;;;13.30;74.20;;;;;;5091226;28;20043;-71
2020/12/17 10:09:28;;;;;;;33.38;25.73;;;13.40;73.70;;;;;;5091190;28;20414;-70
2020/12/17 10:12:32;;;;;;;39.33;27.88;;;13.30;74.20;;;;;;5090909;28;20427;-72
2020/12/17 10:15:36;;;;;;;43.30;28.80;;;13.20;74.70;;;;;;5091601;28;20375;-76
2020/12/17 10:18:39;;;;;;;55.50;40.33;;;13.20;76.10;;;;;;5091564;28;20487;-72
2020/12/17 10:21:47;;;;;;;54.58;38.75;;;13.40;77.50;;;;;;5091046;28;20494;-75
2020/12/17 10:24:51;;;;;;;57.10;40.22;;;13.50;78.30;;;;;;5091583;28;20047;-78
2020/12/17 10:27:55;;;;;;;68.65;45.05;;;13.70;78.20;;;;;;5090180;28;20047;-72
2020/12/17 10:31:00;;;;;;;61.03;43.83;;;14.00;76.70;;;;;;5091037;28;20079;-73
2020/12/17 10:34:06;;;;;;;58.72;43.63;;;14.20;75.80;;;;;;5094901;28;20055;-73
2020/12/17 10:37:13;;;;;;;59.47;42.22;;;14.20;76.00;;;;;;5095352;28;20063;-77
2020/12/17 10:40:19;;;;;;;60.67;41.83;;;14.40;75.90;;;;;;5094468;28;20394;-78
2020/12/17 10:43:23;;;;;;;53.08;38.10;;;14.50;74.20;;;;;;5094781;28;20051;-73
2020/12/17 10:46:27;;;;;;;54.80;35.58;;;14.70;73.90;;;;;;5095089;28;20047;-71
2020/12/17 10:49:31;;;;;;;47.72;35.42;;;14.80;72.20;;;;;;5094725;28;20066;-75
2020/12/17 10:52:35;;;;;;;56.58;37.80;;;14.80;72.90;;;;;;5094310;28;20407;-73
2020/12/17 10:55:39;;;;;;;54.63;36.17;;;14.70;74.70;;;;;;5093322;28;20047;-72
2020/12/17 10:58:43;;;;;;;52.42;36.38;;;14.60;73.60;;;;;;5094305;28;20039;-71
2020/12/17 11:01:49;;;;;;;48.05;34.33;;;14.60;75.30;;;;;;5094124;28;20047;-73
2020/12/17 11:04:53;;;;;;;50.85;34.35;;;14.60;75.60;;;;;;5094559;28;20047;-78
2020/12/17 11:07:57;;;;;;;47.58;32.72;;;14.60;75.70;;;;;;5093832;28;20051;-73
2020/12/17 11:11:01;;;;;;;50.42;34.03;;;14.60;76.10;;;;;;5093998;28;20055;-73
2020/12/17 11:14:05;;;;;;;45.80;33.40;;;14.50;75.30;;;;;;5094138;28;20118;-69
2020/12/17 11:17:09;;;;;;;41.20;28.73;;;14.50;74.70;;;;;;5093464;28;20043;-69
2020/12/17 11:20:13;;;;;;;45.75;32.95;;;14.40;74.60;;;;;;5094171;28;20047;-68
2020/12/17 11:23:17;;;;;;;57.78;41.17;;;14.30;74.30;;;;;;5094101;28;20411;-70
2020/12/17 11:26:22;;;;;;;51.53;35.53;;;14.30;75.20;;;;;;5094257;28;20055;-71
2020/12/17 11:29:26;;;;;;;45.30;31.42;;;14.40;80.40;;;;;;5094122;28;20089;-71
2020/12/17 11:32:30;;;;;;;43.30;29.08;;;14.50;75.80;;;;;;5094066;28;20055;-69
2020/12/17 11:35:34;;;;;;;43.13;29.33;;;14.60;74.90;;;;;;5093256;28;20102;-74
2020/12/17 11:38:41;;;;;;;49.92;33.55;;;14.70;75.00;;;;;;5093407;28;20035;-74
2020/12/17 11:41:48;;;;;;;51.38;31.83;;;14.70;74.20;;;;;;5093839;28;20035;-75
2020/12/17 11:44:53;;;;;;;46.00;33.03;;;14.80;74.40;;;;;;5093386;28;20047;-75
2020/12/17 11:47:57;;;;;;;40.95;29.70;;;14.80;74.00;;;;;;5093657;28;20035;-81
2020/12/17 11:51:01;;;;;;;37.92;27.33;;;14.80;74.90;;;;;;5093686;28;20423;-76
2020/12/17 11:54:05;;;;;;;38.33;27.90;;;14.80;75.20;;;;;;5093791;28;20538;-82
2020/12/17 11:57:10;;;;;;;35.58;25.13;;;14.80;75.40;;;;;;5093411;28;20039;-69
2020/12/17 12:00:15;;;;;;;42.53;28.92;;;14.70;75.20;;;;;;5092906;28;20047;-71
2020/12/17 12:03:19;;;;;;;47.65;29.33;;;14.70;79.50;;;;;;5091011;28;20047;-71
2020/12/17 12:06:23;;;;;;;35.85;26.48;;;14.70;77.40;;;;;;5092546;28;20043;-71
2020/12/17 12:09:27;;;;;;;38.58;26.85;;;14.60;76.50;;;;;;5092937;28;20051;-72
2020/12/17 12:12:31;;;;;;;47.53;29.48;;;14.60;76.40;;;;;;5092978;28;20067;-71
2020/12/17 12:15:35;;;;;;;35.78;26.35;;;14.60;76.00;;;;;;5092418;28;20047;-70
2020/12/17 12:18:41;;;;;;;37.70;26.60;;;14.70;75.80;;;;;;5093160;28;20047;-70
2020/12/17 12:21:52;;;;;;;40.72;28.65;;;14.70;75.90;;;;;;5092766;28;20043;-72
2020/12/17 12:24:56;;;;;;;109.07;79.75;;;14.70;76.40;;;;;;5092728;28;20043;-70
2020/12/17 12:28:00;;;;;;;74.88;51.28;;;14.90;88.70;;;;;;5093150;28;20114;-71
2020/12/17 12:31:05;;;;;;;50.45;37.60;;;15.00;83.40;;;;;;5092627;28;20040;-71
2020/12/17 12:34:09;;;;;;;51.97;34.72;;;15.00;80.70;;;;;;5092494;28;20047;-70
2020/12/17 12:37:14;;;;;;;71.32;45.38;;;15.00;78.90;;;;;;5092693;28;20114;-79
2020/12/17 12:40:18;;;;;;;55.22;38.22;;;15.00;81.50;;;;;;5092819;28;20098;-69
2020/12/17 12:43:22;;;;;;;50.17;33.45;;;15.10;88.50;;;;;;5091881;28;20043;-71
2020/12/17 12:46:26;;;;;;;116.22;84.93;;;15.00;83.60;;;;;;5092760;28;20043;-79
2020/12/17 12:49:29;;;;;;;81.30;60.25;;;15.10;90.50;;;;;;5092645;28;20047;-70
2020/12/17 12:52:33;;;;;;;58.15;42.42;;;15.10;86.40;;;;;;5092178;28;20146;-71
2020/12/17 12:55:37;;;;;;;54.80;35.88;;;15.00;83.10;;;;;;5091654;28;20043;-71
2020/12/17 12:58:41;;;;;;;50.28;35.00;;;14.90;81.50;;;;;;5092193;28;20059;-71
2020/12/17 13:01:45;;;;;;;47.72;32.33;;;14.80;80.40;;;;;;5091573;28;20051;-70
2020/12/17 13:04:49;;;;;;;46.83;31.70;;;14.80;79.40;;;;;;5092296;28;20502;-71
2020/12/17 13:07:53;;;;;;;49.78;32.47;;;14.70;79.10;;;;;;5092002;28;20074;-71
2020/12/17 13:10:57;;;;;;;45.15;32.67;;;14.70;79.10;;;;;;5092101;28;20510;-72
2020/12/17 13:14:01;;;;;;;56.55;37.28;;;14.70;79.10;;;;;;5092029;28;20059;-72
2020/12/17 13:17:05;;;;;;;52.92;36.85;;;14.70;79.30;;;;;;5091991;28;20043;-69
2020/12/17 13:20:09;;;;;;;54.10;39.03;;;14.70;79.30;;;;;;5092160;28;20047;-73
2020/12/17 13:23:13;;;;;;;58.17;41.58;;;14.70;79.30;;;;;;5091854;28;20506;-70
2020/12/17 13:26:19;;;;;;;68.82;43.22;;;14.70;79.20;;;;;;5091958;28;20058;-72
2020/12/17 13:29:23;;;;;;;62.40;41.58;;;14.70;79.20;;;;;;5091685;28;20067;-77
2020/12/17 13:32:28;;;;;;;56.65;41.40;;;14.70;79.40;;;;;;5091770;28;20051;-76
2020/12/17 13:35:32;;;;;;;57.63;40.20;;;14.70;79.30;;;;;;5091629;28;20047;-76
2020/12/17 13:38:37;;;;;;;64.97;45.70;;;14.70;79.60;;;;;;5091621;28;20051;-71
2020/12/17 13:41:40;;;;;;;64.60;44.97;;;14.70;80.20;;;;;;5091777;28;20047;-75
2020/12/17 13:44:45;;;;;;;65.13;46.65;;;14.70;80.50;;;;;;5091891;28;20046;-74
2020/12/17 13:47:49;;;;;;;64.13;45.33;;;14.70;80.80;;;;;;5091527;28;20047;-76
2020/12/17 13:50:53;;;;;;;51.95;39.33;;;14.70;80.90;;;;;;5093381;28;20059;-81
2020/12/17 13:53:57;;;;;;;52.17;36.65;;;14.70;80.30;;;;;;5090361;28;20075;-74
2020/12/17 13:57:04;;;;;;;46.67;33.20;;;14.70;79.10;;;;;;5092654;28;20047;-85
2020/12/17 14:00:08;;;;;;;40.88;30.40;;;14.60;77.60;;;;;;5091519;28;20047;-75
2020/12/17 14:03:12;;;;;;;45.30;26.95;;;14.60;76.30;;;;;;5091305;28;20047;-75
2020/12/17 14:06:20;;;;;;;38.65;25.75;;;14.60;76.40;;;;;;5090286;28;20070;-82
2020/12/17 14:09:25;;;;;;;42.53;25.33;;;14.60;75.40;;;;;;5089507;28;20506;-75
2020/12/17 14:12:29;;;;;;;30.77;22.55;;;14.60;74.80;;;;;;5091119;28;20514;-82
2020/12/17 14:15:33;;;;;;;37.92;28.25;;;14.50;75.00;;;;;;5090840;28;20042;-69
2020/12/17 14:18:44;;;;;;;38.03;25.63;;;14.50;75.70;;;;;;5091251;28;20043;-73
2020/12/17 14:21:52;;;;;;;33.10;23.80;;;14.50;76.50;;;;;;5091174;28;20043;-75
2020/12/17 14:24:57;;;;;;;33.25;22.52;;;14.50;76.30;;;;;;5091291;28;20050;-81
2020/12/17 14:28:02;;;;;;;34.65;22.48;;;14.50;76.40;;;;;;5090034;28;20063;-75
2020/12/17 14:31:05;;;;;;;37.88;22.02;;;14.40;76.30;;;;;;5091147;28;20051;-68
2020/12/17 14:34:09;;;;;;;37.80;21.77;;;14.40;76.40;;;;;;5090839;28;20047;-72
2020/12/17 14:37:13;;;;;;;33.97;22.15;;;14.30;76.50;;;;;;5091248;28;20398;-69
2020/12/17 14:40:17;;;;;;;39.95;24.23;;;14.30;76.60;;;;;;5091117;28;20039;-69
2020/12/17 14:43:21;;;;;;;44.30;26.42;;;14.30;76.80;;;;;;5090826;28;20063;-70
2020/12/17 14:46:25;;;;;;;47.05;28.10;;;14.20;77.10;;;;;;5090797;28;20044;-72
2020/12/17 14:49:29;;;;;;;40.15;29.15;;;14.20;77.40;;;;;;5090912;28;20506;-74
2020/12/17 14:52:33;;;;;;;50.97;31.17;;;14.20;77.70;;;;;;5090408;28;20506;-74
2020/12/17 14:55:37;;;;;;;69.35;33.75;;;14.10;78.20;;;;;;5090396;28;20043;-73
2020/12/17 14:58:43;;;;;;;49.58;34.00;;;14.10;78.70;;;;;;5090841;28;20075;-74
2020/12/17 15:01:54;;;;;;;63.03;35.20;;;14.00;79.20;;;;;;5089749;28;20047;-74
2020/12/17 15:04:57;;;;;;;69.63;37.47;;;13.90;80.10;;;;;;5090941;28;20198;-74
2020/12/17 15:08:02;;;;;;;49.88;32.30;;;13.80;81.10;;;;;;5090748;28;20043;-74
2020/12/17 15:11:06;;;;;;;74.75;37.92;;;13.80;81.10;;;;;;5090450;28;20059;-74
2020/12/17 15:14:10;;;;;;;84.85;40.55;;;13.80;81.10;;;;;;5090714;28;20051;-74
2020/12/17 15:17:16;;;;;;;119.50;42.42;;;13.80;81.30;;;;;;5090582;28;20051;-73
2020/12/17 15:20:19;;;;;;;131.13;43.80;;;13.70;81.70;;;;;;5094412;28;20194;-74
2020/12/17 15:23:23;;;;;;;108.72;39.47;;;13.60;81.90;;;;;;5094140;28;20051;-74
2020/12/17 15:26:27;;;;;;;100.20;39.10;;;13.60;82.30;;;;;;5094104;28;20372;-74
2020/12/17 15:29:31;;;;;;;103.93;37.67;;;13.50;83.00;;;;;;5094122;28;20051;-74
2020/12/17 15:32:35;;;;;;;89.07;37.08;;;13.40;82.80;;;;;;5093570;28;20047;-74
2020/12/17 15:35:39;;;;;;;89.10;36.53;;;13.30;83.80;;;;;;5093942;28;20047;-73
2020/12/17 15:38:43;;;;;;;111.78;36.88;;;13.20;83.60;;;;;;5093784;28;20055;-74
2020/12/17 15:41:47;;;;;;;104.15;36.85;;;13.20;83.80;;;;;;5093691;28;20051;-74